Ciudad Guayana, Venezuela
Current Conditions -  °F | °C
As of 3:00 AM on Saturday 27 Dec 2014 (Local Time) from TTPP Reporting Station
Broken Clouds Broken Clouds  
Wind Chill: 24°   Ceiling: 4000
Heat Index: 24°   Visibility: 6mi
Dew Point: 22°   Wind: 0mph
Humidity: 89%   Direction: NA
Pressure: 29.88"   Gusts: NA
Location:  8.37°N, 62.62°W
Report Text: TTPP 270700Z 00000KT 9999 SCT015 BKN040 24/22 Q1012 NOSIG
Loading
Personal Weather Stations






























Interactive Weather Map New forecast layout! Learn more

10-Day Weather Forecast

Advertisements
Track Severe Weather on mobile